createdAt,value
2023-02-15T08:34:27.493Z,97711.22
2023-02-15T08:35:28.833Z,97708.63
2023-02-15T08:36:32.559Z,97704.72
2023-02-15T08:37:33.898Z,97700.69
2023-02-15T08:38:35.593Z,97711.09
2023-02-15T08:39:37.234Z,97705.34
2023-02-15T08:40:39.064Z,97696.84
2023-02-15T08:41:43.635Z,97699.41
2023-02-15T08:42:45.043Z,97705.28
2023-02-15T08:43:49.281Z,97704.09
2023-02-15T08:44:52.594Z,97701.22
2023-02-15T08:45:53.979Z,97695.91
2023-02-15T08:46:55.755Z,97697.97
2023-02-15T08:47:57.124Z,97709.06
2023-02-15T08:48:59.176Z,97708.44
2023-02-15T08:50:00.558Z,97701.28
2023-02-15T08:51:28.612Z,97707.88
2023-02-15T08:52:29.986Z,97707.16
2023-02-15T08:53:31.340Z,97710.94
2023-02-15T08:54:32.794Z,97713.84
2023-02-15T08:55:34.133Z,97701.63
2023-02-15T08:56:38.598Z,97704.44
2023-02-15T08:57:45.768Z,97708.25
2023-02-15T08:58:47.214Z,97710.25
2023-02-15T08:59:49.425Z,97711.44
2023-02-15T09:00:52.619Z,97696.97
2023-02-15T09:01:54.768Z,97706.06
2023-02-15T09:02:56.172Z,97702.91
2023-02-15T09:04:07.333Z,97703.88
2023-02-15T09:05:08.693Z,97708.44
2023-02-15T09:06:10.098Z,97702.31
2023-02-15T09:07:11.639Z,97705.63
2023-02-15T09:08:13.145Z,97704.56
2023-02-15T09:09:14.684Z,97712.00
2023-02-15T09:10:16.383Z,97709.50
2023-02-15T09:11:39.046Z,97706.88
2023-02-15T09:12:40.452Z,97700.41
2023-02-15T09:13:41.961Z,97697.44
2023-02-15T09:14:43.342Z,97696.56
2023-02-15T09:15:44.903Z,97698.22
2023-02-15T09:16:49.500Z,97696.69
2023-02-15T09:17:51.235Z,97695.59
2023-02-15T09:18:52.926Z,97701.13
2023-02-15T09:19:54.309Z,97695.25
2023-02-15T09:20:56.320Z,97701.09
2023-02-15T09:21:59.150Z,97696.19
2023-02-15T09:23:00.899Z,97693.50
2023-02-15T09:24:05.967Z,97691.50
2023-02-15T09:25:07.754Z,97689.91
2023-02-15T09:26:15.320Z,97677.44
2023-02-15T09:27:16.776Z,97692.31
2023-02-15T09:28:18.682Z,97682.91
2023-02-15T09:29:20.847Z,97691.09
2023-02-15T09:30:22.462Z,97685.44
2023-02-15T09:31:26.997Z,97691.16
2023-02-15T09:32:28.585Z,97686.06
2023-02-15T09:33:29.958Z,97687.63
2023-02-15T09:34:33.004Z,97686.22
2023-02-15T09:35:35.513Z,97684.66
2023-02-15T09:36:39.114Z,97686.16
2023-02-15T09:37:40.630Z,97683.97
2023-02-15T09:38:42.172Z,97681.53
2023-02-15T09:39:44.676Z,97688.41
2023-02-15T09:41:13.643Z,97685.88
2023-02-15T09:42:38.227Z,97687.72
2023-02-15T09:43:58.167Z,97682.38
2023-02-15T09:45:11.955Z,97682.44
2023-02-15T09:46:38.914Z,97683.31
2023-02-15T09:48:11.093Z,97676.63
2023-02-15T09:49:39.164Z,97674.00
2023-02-15T09:50:52.992Z,97680.06
2023-02-15T09:52:26.331Z,97676.75
2023-02-15T09:53:35.261Z,97672.91
2023-02-15T09:54:53.874Z,97677.28
2023-02-15T09:56:16.479Z,97676.50
2023-02-15T09:57:30.477Z,97668.22
2023-02-15T09:58:56.756Z,97678.50
2023-02-15T10:00:16.341Z,97671.22
2023-02-15T10:01:23.769Z,97672.38
2023-02-15T10:02:40.535Z,97669.41
2023-02-15T10:03:54.582Z,97669.91
2023-02-15T10:05:09.008Z,97672.28
2023-02-15T10:06:42.761Z,97670.72
2023-02-15T10:07:52.952Z,97673.81
2023-02-15T10:09:15.568Z,97673.28
2023-02-15T10:10:34.823Z,97681.03
2023-02-15T10:11:51.081Z,97677.88
2023-02-15T10:13:00.194Z,97675.56
2023-02-15T10:14:11.046Z,97669.28
2023-02-15T10:15:15.425Z,97679.56
2023-02-15T10:16:53.154Z,97671.63
2023-02-15T10:18:15.978Z,97670.44
2023-02-15T10:19:50.570Z,97671.91
2023-02-15T10:21:03.577Z,97667.44
2023-02-15T10:22:19.970Z,97673.41
2023-02-15T10:23:30.348Z,97674.47
2023-02-15T10:25:05.678Z,97673.19
2023-02-15T10:26:27.968Z,97664.63
2023-02-15T10:27:32.215Z,97671.53
2023-02-15T10:28:47.517Z,97669.28
2023-02-15T10:29:56.773Z,97671.34
2023-02-15T10:31:18.311Z,97668.91
2023-02-15T10:32:27.448Z,97675.84
2023-02-15T10:33:38.462Z,97671.06
2023-02-15T10:35:01.961Z,97667.72
2023-02-15T10:36:17.223Z,97662.81
2023-02-15T10:37:27.996Z,97665.00
2023-02-15T10:38:45.771Z,97666.34
2023-02-15T10:39:52.502Z,97667.56
2023-02-15T10:41:08.781Z,97660.31
2023-02-15T10:42:16.591Z,97664.91
2023-02-15T10:44:02.377Z,97660.50
2023-02-15T10:45:22.598Z,97657.84
2023-02-15T10:46:44.494Z,97657.47
2023-02-15T10:48:07.385Z,97656.69
2023-02-15T10:49:27.500Z,97655.78
2023-02-15T10:50:50.096Z,97655.16
2023-02-15T10:52:10.790Z,97652.84
2023-02-15T10:53:24.258Z,97658.44
2023-02-15T10:54:55.607Z,97652.50
2023-02-15T10:56:01.247Z,97661.66
2023-02-15T10:57:07.055Z,97661.00
2023-02-15T10:58:14.384Z,97655.03
2023-02-15T10:59:57.851Z,97656.22
2023-02-15T11:01:20.799Z,97653.63
2023-02-15T11:02:47.639Z,97651.44
2023-02-15T11:04:31.564Z,97655.63
2023-02-15T11:05:55.697Z,97651.47
2023-02-15T11:07:29.544Z,97651.59
2023-02-15T11:08:36.910Z,97643.13
2023-02-15T11:09:43.705Z,97642.22
2023-02-15T11:10:52.523Z,97644.59
2023-02-15T11:11:58.163Z,97632.81
2023-02-15T11:13:07.053Z,97642.72
2023-02-15T11:14:18.807Z,97636.22
2023-02-15T11:15:36.095Z,97642.41
2023-02-15T11:16:41.769Z,97632.81
2023-02-15T11:17:51.631Z,97633.97
2023-02-15T11:18:59.502Z,97639.72
2023-02-15T11:20:16.236Z,97639.16
2023-02-15T11:21:17.521Z,97630.81
2023-02-15T11:22:19.361Z,97630.53
2023-02-15T11:23:21.774Z,97633.81
2023-02-15T11:24:28.940Z,97636.47
2023-02-15T11:25:35.190Z,97636.19
2023-02-15T11:26:58.594Z,97633.44
2023-02-15T11:28:04.422Z,97623.69
2023-02-15T11:29:16.784Z,97635.47
2023-02-15T11:30:28.894Z,97632.53
2023-02-15T11:31:42.651Z,97631.47
2023-02-15T11:32:52.286Z,97629.44
2023-02-15T11:34:01.178Z,97625.63
2023-02-15T11:35:18.445Z,97629.84
2023-02-15T11:36:25.346Z,97628.19
2023-02-15T11:37:41.724Z,97618.16
2023-02-15T11:38:44.856Z,97617.03
2023-02-15T11:39:52.417Z,97614.75
2023-02-15T11:41:04.905Z,97617.03
2023-02-15T11:42:14.689Z,97620.00
2023-02-15T11:43:39.310Z,97618.91
2023-02-15T11:45:12.944Z,97616.88
2023-02-15T11:46:15.697Z,97610.78
2023-02-15T11:47:17.191Z,97615.13
2023-02-15T11:48:18.785Z,97608.72
2023-02-15T11:49:23.484Z,97611.84
2023-02-15T11:50:28.317Z,97613.84
2023-02-15T11:51:30.001Z,97602.47
2023-02-15T11:52:31.735Z,97600.63
2023-02-15T11:53:37.042Z,97614.63
2023-02-15T11:54:42.588Z,97601.81
2023-02-15T11:55:49.428Z,97608.00
2023-02-15T11:56:51.319Z,97598.66
2023-02-15T11:58:03.428Z,97609.22
2023-02-15T11:59:11.046Z,97603.41
2023-02-15T12:00:36.878Z,97601.78
2023-02-15T12:01:47.689Z,97608.66
2023-02-15T12:02:53.254Z,97598.28
2023-02-15T12:04:19.152Z,97593.72
2023-02-15T12:05:24.515Z,97591.19
2023-02-15T12:06:30.512Z,97599.25
2023-02-15T12:07:37.716Z,97588.94
2023-02-15T12:08:43.496Z,97593.72
2023-02-15T12:09:57.634Z,97597.47
2023-02-15T12:11:06.681Z,97590.72
2023-02-15T12:12:34.107Z,97589.94
2023-02-15T12:13:35.474Z,97584.13
2023-02-15T12:14:57.537Z,97589.69
2023-02-15T12:16:05.478Z,97590.69
2023-02-15T12:17:14.269Z,97588.38
2023-02-15T12:18:26.582Z,97584.19
2023-02-15T12:19:37.935Z,97583.44
2023-02-15T12:20:39.612Z,97588.69
2023-02-15T12:21:42.838Z,97588.97
2023-02-15T12:22:54.226Z,97586.41
2023-02-15T12:24:10.635Z,97580.66
2023-02-15T12:25:26.831Z,97587.16
2023-02-15T12:26:34.847Z,97579.50
2023-02-15T12:27:36.600Z,97584.94
2023-02-15T12:28:42.808Z,97585.47
2023-02-15T12:29:53.603Z,97588.41
2023-02-15T12:30:57.511Z,97586.97
2023-02-15T12:32:00.215Z,97588.84
2023-02-15T12:33:34.058Z,97584.53
2023-02-15T12:34:44.667Z,97589.63
2023-02-15T12:35:50.195Z,97583.50
2023-02-15T12:37:01.232Z,97586.94
2023-02-15T12:38:11.373Z,97583.41
2023-02-15T12:39:12.755Z,97578.22
2023-02-15T12:40:41.196Z,97575.47
2023-02-15T12:41:57.817Z,97568.69
2023-02-15T12:42:59.847Z,97579.31
2023-02-15T12:44:17.028Z,97577.16
2023-02-15T12:45:31.322Z,97573.13
2023-02-15T12:46:37.913Z,97571.94
2023-02-15T12:47:39.673Z,97569.78
2023-02-15T12:48:41.286Z,97562.75
2023-02-15T12:49:47.623Z,97556.22
2023-02-15T12:50:58.032Z,97561.03
2023-02-15T12:52:07.674Z,97566.47
2023-02-15T12:53:16.986Z,97565.72
2023-02-15T12:54:41.717Z,97563.66
2023-02-15T12:55:56.993Z,97564.41
2023-02-15T12:56:59.871Z,97554.75
2023-02-15T12:58:19.278Z,97564.63
2023-02-15T12:59:23.210Z,97559.34
2023-02-15T13:00:28.681Z,97568.19
2023-02-15T13:01:33.254Z,97563.69
2023-02-15T13:02:47.866Z,97564.13
2023-02-15T13:03:58.389Z,97555.81
2023-02-15T13:05:19.417Z,97557.28
2023-02-15T13:06:21.857Z,97552.56
2023-02-15T13:07:26.479Z,97548.91
2023-02-15T13:08:31.488Z,97553.94
2023-02-15T13:09:33.193Z,97549.28
2023-02-15T13:10:53.091Z,97554.97
2023-02-15T13:11:55.158Z,97548.44
2023-02-15T13:12:58.842Z,97548.13
2023-02-15T13:14:04.129Z,97553.88
2023-02-15T13:15:44.484Z,97549.88
2023-02-15T13:16:49.145Z,97550.91
2023-02-15T13:17:50.766Z,97536.78
2023-02-15T13:18:53.002Z,97542.16
2023-02-15T13:19:57.729Z,97540.06
2023-02-15T13:21:10.651Z,97539.31
2023-02-15T13:22:25.287Z,97543.06
2023-02-15T13:23:32.320Z,97534.03
2023-02-15T13:24:38.658Z,97539.25
2023-02-15T13:25:51.173Z,97533.59
2023-02-15T13:27:12.895Z,97534.97
2023-02-15T13:28:19.132Z,97524.81
2023-02-15T13:29:28.150Z,97527.94
2023-02-15T13:30:35.943Z,97531.16
2023-02-15T13:31:37.718Z,97527.09
2023-02-15T13:32:42.003Z,97528.50
2023-02-15T13:33:48.016Z,97530.44
2023-02-15T13:34:49.575Z,97518.88
2023-02-15T13:36:18.907Z,97520.63
2023-02-15T13:37:54.559Z,97520.41
2023-02-15T13:39:09.558Z,97513.53
2023-02-15T13:40:26.249Z,97513.03
2023-02-15T13:42:14.221Z,97506.97
2023-02-15T13:43:38.910Z,97524.56
2023-02-15T13:44:50.622Z,97513.31
2023-02-15T13:46:13.844Z,97509.78
2023-02-15T13:47:25.154Z,97507.28
2023-02-15T13:48:45.735Z,97511.44
2023-02-15T13:49:57.220Z,97513.78
2023-02-15T13:51:04.784Z,97514.53
2023-02-15T13:52:19.126Z,97510.63
2023-02-15T13:53:45.938Z,97517.69
2023-02-15T13:55:06.848Z,97515.72
2023-02-15T13:56:26.810Z,97509.94
2023-02-15T13:57:47.038Z,97508.22
2023-02-15T13:59:04.967Z,97508.81
2023-02-15T14:00:15.264Z,97503.31
2023-02-15T14:01:48.827Z,97503.38
2023-02-15T14:03:14.772Z,97500.78
2023-02-15T14:05:04.290Z,97502.38
2023-02-15T14:06:16.431Z,97505.16
2023-02-15T14:07:17.819Z,97501.91
2023-02-15T14:08:39.139Z,97497.81
2023-02-15T14:09:49.775Z,97500.97
2023-02-15T14:11:07.994Z,97497.69
2023-02-15T14:12:27.671Z,97498.03
2023-02-15T14:13:55.842Z,97500.13
2023-02-15T14:15:00.212Z,97502.91
2023-02-15T14:16:09.950Z,97509.06
2023-02-15T14:17:30.997Z,97495.50
2023-02-15T14:18:44.466Z,97495.34
2023-02-15T14:19:51.096Z,97490.88
2023-02-15T14:21:01.250Z,97495.38
2023-02-15T14:22:09.250Z,97504.09
2023-02-15T14:23:20.618Z,97499.63
2023-02-15T14:24:34.741Z,97497.44
2023-02-15T14:25:58.960Z,97496.50
2023-02-15T14:27:24.993Z,97495.25
2023-02-15T14:28:42.121Z,97497.56
2023-02-15T14:29:50.671Z,97496.94
2023-02-15T14:30:53.958Z,97495.72
2023-02-15T14:32:01.200Z,97493.81
2023-02-15T14:33:09.844Z,97493.81
2023-02-15T14:34:29.037Z,97498.78
2023-02-15T14:35:31.270Z,97499.59
2023-02-15T14:36:34.252Z,97494.28
2023-02-15T14:38:28.203Z,97501.63
2023-02-15T14:40:02.109Z,97501.47
2023-02-15T14:41:17.796Z,97502.59
2023-02-15T14:42:26.582Z,97505.25
2023-02-15T14:43:58.914Z,97507.88
2023-02-15T14:45:14.334Z,97512.84
2023-02-15T14:46:26.742Z,97511.63
2023-02-15T14:47:41.221Z,97510.81
2023-02-15T14:48:47.366Z,97499.75
2023-02-15T14:49:48.874Z,97498.47
2023-02-15T14:50:50.359Z,97505.09
2023-02-15T14:51:52.141Z,97506.88
2023-02-15T14:53:36.929Z,97511.06
2023-02-15T14:54:38.782Z,97515.19
2023-02-15T14:55:40.466Z,97505.75
2023-02-15T14:56:41.887Z,97513.66
2023-02-15T14:57:57.926Z,97517.72
2023-02-15T14:59:09.922Z,97514.63
2023-02-15T15:00:40.907Z,97515.63
2023-02-15T15:01:51.409Z,97524.53
2023-02-15T15:02:53.822Z,97519.22
2023-02-15T15:04:00.148Z,97513.41
2023-02-15T15:05:11.048Z,97518.25
2023-02-15T15:06:27.743Z,97516.22
2023-02-15T15:07:51.745Z,97512.88
2023-02-15T15:09:20.840Z,97517.41
2023-02-15T15:10:22.229Z,97511.41
2023-02-15T15:11:42.614Z,97508.31
2023-02-15T15:12:49.154Z,97513.31
2023-02-15T15:13:56.404Z,97513.75
2023-02-15T15:14:57.814Z,97511.75
2023-02-15T15:16:36.050Z,97513.31
2023-02-15T15:17:39.045Z,97510.16
2023-02-15T15:18:49.119Z,97507.84
2023-02-15T15:19:52.405Z,97511.56
2023-02-15T15:20:54.302Z,97516.44
2023-02-15T15:21:57.708Z,97511.13
2023-02-15T15:23:17.566Z,97515.81
2023-02-15T15:24:37.600Z,97511.16
2023-02-15T15:25:39.632Z,97512.53
2023-02-15T15:26:49.524Z,97512.72
2023-02-15T15:27:54.916Z,97514.81
2023-02-15T15:28:59.492Z,97521.97
2023-02-15T15:30:01.042Z,97517.66
2023-02-15T15:31:21.465Z,97521.31
2023-02-15T15:32:32.404Z,97520.81
2023-02-15T15:34:18.208Z,97522.03
2023-02-15T15:35:37.443Z,97518.66
2023-02-15T15:37:03.288Z,97520.59
2023-02-15T15:38:31.900Z,97501.78
2023-02-15T15:39:54.456Z,97525.06
2023-02-15T15:41:11.052Z,97521.56
2023-02-15T15:42:14.103Z,97523.78
2023-02-15T15:43:54.044Z,97517.09
2023-02-15T15:45:19.839Z,97520.97
2023-02-15T15:46:49.090Z,97519.19
2023-02-15T15:48:09.747Z,97520.44
2023-02-15T15:49:16.560Z,97510.81
2023-02-15T15:50:20.152Z,97510.31
2023-02-15T15:51:30.086Z,97519.59
2023-02-15T15:52:36.302Z,97518.56
2023-02-15T15:53:45.252Z,97518.19
2023-02-15T15:54:51.177Z,97513.44
2023-02-15T15:55:59.770Z,97515.97
2023-02-15T15:57:04.473Z,97515.16
2023-02-15T15:58:08.194Z,97519.66
2023-02-15T15:59:19.483Z,97517.16
2023-02-15T16:00:55.032Z,97518.91
2023-02-15T16:01:57.104Z,97527.00
2023-02-15T16:02:58.487Z,97519.97
2023-02-15T16:04:00.351Z,97528.38
2023-02-15T16:05:09.541Z,97531.44
2023-02-15T16:06:36.180Z,97525.84
2023-02-15T16:07:41.234Z,97531.75
2023-02-15T16:08:42.684Z,97530.38
2023-02-15T16:09:59.456Z,97524.97
2023-02-15T16:11:11.013Z,97522.94
2023-02-15T16:12:18.411Z,97524.78
2023-02-15T16:13:19.941Z,97519.28
2023-02-15T16:14:33.034Z,97530.44
2023-02-15T16:15:53.337Z,97519.97
2023-02-15T16:16:58.271Z,97523.63
2023-02-15T16:18:01.325Z,97525.34
2023-02-15T16:19:03.739Z,97520.22
2023-02-15T16:20:19.427Z,97527.75
2023-02-15T16:21:24.146Z,97528.06
2023-02-15T16:22:30.046Z,97531.41
2023-02-15T16:23:37.440Z,97531.41
2023-02-15T16:24:51.440Z,97530.47
2023-02-15T16:26:14.010Z,97530.81
2023-02-15T16:27:38.487Z,97525.53
2023-02-15T16:28:40.236Z,97528.50
2023-02-15T16:29:41.705Z,97528.50
2023-02-15T16:30:43.844Z,97519.56
2023-02-15T16:32:21.286Z,97518.72
2023-02-15T16:33:22.713Z,97526.63
2023-02-15T16:34:24.104Z,97525.28
2023-02-15T16:35:25.500Z,97525.69
2023-02-15T16:36:29.352Z,97530.84
2023-02-15T16:37:35.578Z,97533.03
2023-02-15T16:38:43.058Z,97534.53
2023-02-15T16:39:46.033Z,97538.28
2023-02-15T16:40:56.434Z,97531.66
2023-02-15T16:41:58.326Z,97530.66
2023-02-15T16:43:05.041Z,97537.78
2023-02-15T16:44:13.774Z,97526.00
2023-02-15T16:45:19.206Z,97538.78
